Alfonso Castelli

Chefscout - Torino
3 Dez 2028
Sonntag
Verarbeitung

Persönlichkeit

Anpassungsfähigkeit (20) Ehrgeiz (1) Kontroverse (14) Loyalität (4) Druck (6) Professionalität (5) Fairness (9) Temperament (4)

Profil

Trainerstil Demokratisch
Lizenz Kontinentale Pro
Entschlossenheit 8
Menschenführung 14
Motivation 14
Disziplin 14
Arbeitszufriedenheit
74%
Ermüdung
0%
Rolle Chefscout
Gehalt 38.8K p/W
Vertrag 14.03.2030

Leistung

Verhalten Gut
Trainingseffektivität
39%
Spielerentwicklung
50%
Verletzungsprävention
65%
Taktische Umsetzung
35%

Letzte Ereignisse

Nahm an einer Scouting-Besprechung teil jetzt
Nahm an einer Scouting-Besprechung teil jetzt
Empfahl ein Transferziel jetzt
Empfahl ein Transferziel jetzt
Empfahl ein Transferziel jetzt
Empfahl ein Transferziel jetzt
Nahm an einer Scouting-Besprechung teil jetzt
Spieler begutachtet jetzt

Aktuell beobachtet

143
Spieler Verein Status Fähigkeit Vertrauen Beobachtet Zuletzt beobachtet Letzte Stimme
Riquelme Thompson-Jones Accrington Stanley Aktiv 111 / 124 40% 5 01.12.2028 -
Azizbek To'lqinbekov Bunyodkor Aktiv 95 / 107 40% 3 01.12.2028 -
Salvador Blopá Wolverhampton Aktiv 128 / 129 40% 2 01.12.2028 -
Diego León Rotherham United Aktiv 128 / 135 40% 5 29.11.2028 -
Chris Rigg West Ham United Aktiv 136 / 150 40% 3 29.11.2028 -
Johan Solstad-Nøis Tromso Aktiv 101 / 107 40% 1 29.11.2028 -
Miguel Figueiredo Benfica Aktiv 129 / 130 40% 3 28.11.2028 -
Máximo Munarriz San Telmo Aktiv 103 / 109 40% 2 27.11.2028 -
Christos Mouzakitis Hull City Aktiv 137 / 151 40% 6 26.11.2028 -
Filip Reshane Stabaek Aktiv 107 / 113 40% 1 26.11.2028 -
Tyson Pearce St. Louis CITY SC Aktiv 91 / 100 40% 1 25.11.2028 -
Trey Nyoni Rotherham United Aktiv 140 / 146 40% 2 23.11.2028 -
Veljko Milosavljević Bournemouth Aktiv 155 / 153 40% 6 22.11.2028 -
Jan Bürger Northampton Town Aktiv 120 / 125 40% 3 22.11.2028 -
Daniel Banjaqui Benfica Aktiv 126 / 135 40% 2 22.11.2028 -
Celías Ingenthron Platense Aktiv 109 / 129 40% 3 18.11.2028 -
Josh King Newcastle United Aktiv 154 / 152 40% 1 11.11.2028 -
Tyler Fletcher Rotherham United Aktiv 113 / 124 40% 1 11.11.2028 -
Cheveyo Tsawa Club Brugge Aktiv 134 / 139 40% 1 10.11.2028 -
Davinchi Getafe Aktiv 125 / 135 40% 1 08.11.2028 -
Matteo Palma Udinese Aktiv 128 / 140 40% 1 07.11.2028 -
Louis Page Leicester City Aktiv 131 / 142 40% 3 06.11.2028 -
Felipe Pujol Vélez Aktiv 110 / 123 40% 1 06.11.2028 -
Mateo Caballero Defensor Sporting Aktiv 110 / 106 40% 1 06.10.2028 -
Kwesi Sorotu Badori Berekum Chelsea Aktiv 98 / 107 40% 1 06.10.2028 -
Máximo Magnoli Ferro Carril Oeste Aktiv 94 / 107 40% 1 06.10.2028 -
Giovanni Leoni Lincoln City Aktiv 147 / 147 40% 1 02.10.2028 -
Luka Vušković Tottenham Aktiv 152 / 158 40% 1 06.09.2028 -
Tobías Andrada River Plate Aktiv 119 / 125 40% 2 05.09.2028 -
Tobías Ramírez River Plate Aktiv 133 / 138 40% 1 04.09.2028 -
Simone Zanon Carrarese Bericht bereit 126 / 134 72% 1 28.08.2028 -
Emanuele Zuelli Padova Bericht bereit 132 / 131 72% 1 24.07.2028 -
Ayden Heaven Portsmouth Aktiv 153 / 154 40% 2 19.06.2028 -
Musa Danjuma Umraniyespor Aktiv 99 / 104 40% 1 19.06.2028 -
Dion Beljo AJ Auxerre Aktiv 131 / 132 66% 1 01.01.2028 -
Mateo Retegui Atlético Madrid Aktiv 156 / 156 68% 1 01.01.2028 -
Sindre Walle Egeli Udinese Aktiv 144 / 137 40% 2 31.12.2027 -
Senny Mayulu Paris Saint-Germain Aktiv 152 / 149 40% 1 31.12.2027 -
Kevin Filling AIK Aktiv 110 / 111 40% 1 31.12.2027 -
Víctor Guzmán Sporting CP Aktiv 97 / 104 40% 1 05.07.2027 -
Franculino Brighton Aktiv 136 / 140 67% 1 01.06.2027 Befürworten
Tommaso Pobega Bologna Aktiv 138 / 131 40% 14 30.05.2027 -
Trevoh Chalobah Como Aktiv 162 / 149 40% 8 29.05.2027 -
Oumar Solet Udinese Aktiv 147 / 151 40% 5 29.05.2027 -
Tiago Freitas Benfica Aktiv 106 / 111 40% 3 29.05.2027 -
Rhys Walters Port Vale Aktiv 100 / 101 40% 1 29.05.2027 -
Riley Owen Stevenage Aktiv 101 / 115 40% 1 28.05.2027 -
Evan N'Dicka AS Roma Aktiv 152 / 154 40% 6 26.05.2027 -
Diego Gómez Brighton Aktiv 148 / 143 40% 7 24.05.2027 -
Lewis Ferguson Bologna Aktiv 151 / 140 40% 5 24.05.2027 -
Manu Koné AS Roma Aktiv 165 / 159 40% 10 23.05.2027 -
Nicolò Fagioli Fiorentina Aktiv 141 / 141 40% 5 23.05.2027 -
Kenneth Taylor Lazio Aktiv 151 / 154 40% 5 22.05.2027 -
Wesley AS Roma Aktiv 151 / 155 40% 1 22.05.2027 -
Marco Brescianini Fiorentina Aktiv 140 / 133 40% 3 21.05.2027 -
Bade Aluko Leicester City Aktiv 113 / 121 40% 1 21.05.2027 -
Giorgio Scalvini Atalanta Aktiv 147 / 145 40% 7 20.05.2027 -
Alessandro Buongiorno Cagliari Aktiv 152 / 155 40% 13 18.05.2027 -
Juan Miranda Bologna Aktiv 145 / 135 40% 1 18.05.2027 -
Nicolò Rovella Lazio Aktiv 155 / 143 40% 4 16.05.2027 -
Raoul Bellanova Atalanta Aktiv 158 / 151 40% 7 16.05.2027 -
Bernardo Lima Porto Aktiv 98 / 101 40% 1 16.05.2027 -
Lucas Da Cunha Como Aktiv 145 / 137 40% 11 14.05.2027 -
Nuno Tavares Lazio Aktiv 141 / 148 40% 8 14.05.2027 -
Odilon Kossounou Atalanta Aktiv 138 / 152 40% 10 12.05.2027 -
Kiani Inge Groningen Aktiv 101 / 105 40% 2 07.05.2027 -
Riyad Idrissi Cagliari Aktiv 129 / 133 40% 1 07.05.2027 -
Enrico Delprato Parma Aktiv 141 / 132 40% 7 01.05.2027 -
Adrián Bernabé Parma Aktiv 136 / 142 40% 4 30.04.2027 -
Billy Gilmour Napoli Aktiv 147 / 148 40% 6 26.04.2027 -
Gonçalo Oliveira Benfica Aktiv 109 / 116 40% 1 23.04.2027 -
Mario Gila AC Milan Aktiv 158 / 146 40% 5 21.04.2027 -
Arthur Atta Fiorentina Aktiv 142 / 137 40% 10 20.04.2027 -
Hans Nicolussi Caviglia Parma Aktiv 141 / 135 40% 4 17.04.2027 -
Curtis Jones Inter Aktiv 156 / 161 40% 4 06.04.2027 -
Martim Cunha Porto Aktiv 102 / 101 40% 2 01.04.2027 -
David Ozoh Derby County Aktiv 115 / 127 40% 1 01.04.2027 -
Jordan Zemura Udinese Aktiv 129 / 134 40% 6 24.03.2027 -
Vittorio Magni Cesena Aktiv 94 / 107 40% 1 19.03.2027 -
Cemran Dansin Orlando Pirates Aktiv 106 / 121 40% 1 13.03.2027 -
Sascha Britschgi AC Milan Aktiv 117 / 122 40% 1 13.03.2027 -
Alessandro Bastoni Inter Aktiv 160 / 160 40% 2 06.03.2027 -
Eivind Helland AC Milan Aktiv 123 / 136 40% 1 05.03.2027 -
Kazunari Kita Real Sociedad Aktiv 92 / 99 40% 1 03.03.2027 -
Thierry Rendall Correia Venezia Aktiv 141 / 145 40% 3 20.02.2027 Beobachten
Gustavo Mantuan Zenit Aktiv 129 / 127 40% 1 14.02.2027 -
Ilyas Ansah Hull City Aktiv 136 / 139 40% 2 07.02.2027 -
Erick Marcus Ludogorets Aktiv 124 / 113 40% 1 07.02.2027 -
Diego Moreira AC Milan Aktiv 151 / 148 40% 1 05.02.2027 -
Ivan Smolčić Como Aktiv 128 / 124 72% 1 25.01.2027 Befürworten
Gianluca Busio Venezia Aktiv 133 / 129 72% 1 03.01.2027 Befürworten
Marcel Ruiz Crystal Palace Aktiv 140 / 141 68% 1 01.01.2027 Befürworten
Nicolò Zaniolo Udinese Aktiv 143 / 139 40% 10 30.12.2026 -
Giacomo Raspadori Atalanta Aktiv 144 / 153 40% 7 29.12.2026 -
Santiago Pierotti Lecce Aktiv 129 / 123 40% 8 29.12.2026 -
Luca Moro Padova Aktiv 123 / 124 40% 4 27.12.2026 -
Ivo Mammini Beitar Jerusalem Aktiv 113 / 115 40% 2 27.12.2026 -
Armstrong Oko-Flex Levski Aktiv 125 / 115 40% 5 26.12.2026 -
Giorgi Kvernadze Frosinone Aktiv 120 / 131 40% 3 25.12.2026 -
Mateo Pellegrino Fiorentina Aktiv 134 / 138 40% 8 23.12.2026 -
Lorenzo Colombo Genoa Aktiv 137 / 138 40% 8 23.12.2026 -
Gonçalo Ramos AC Milan Aktiv 156 / 152 40% 7 20.12.2026 Beobachten
Andrea Pinamonti Lazio Aktiv 143 / 133 40% 6 15.12.2026 -
Amin Sarr Hellas Verona Aktiv 133 / 127 40% 6 07.12.2026 -
Sota Kitano Red Bull Salzburg Aktiv 120 / 119 40% 3 05.12.2026 -
Willem Geubbels Lecce Aktiv 125 / 126 40% 1 04.12.2026 -
Matteo Rover Reggiana Aktiv 126 / 125 40% 3 02.12.2026 -
Martin Baturina Como Aktiv 133 / 138 40% 1 28.11.2026 -
Gianluca Scamacca Atalanta Aktiv 141 / 144 40% 5 26.11.2026 -
Vitinha Genoa Aktiv 125 / 124 40% 3 15.11.2026 -
Kévin Denkey FC Cincinnati Aktiv 131 / 133 40% 4 14.11.2026 -
Mattia Felici Cagliari Aktiv 124 / 123 40% 1 13.11.2026 -
Martín Ojeda Orlando City Aktiv 135 / 140 40% 3 12.11.2026 -
Tadeo Allende Inter Miami CF Aktiv 129 / 119 40% 1 12.11.2026 -
Donyell Malen AS Roma Aktiv 148 / 150 40% 3 05.11.2026 -
Talles Magno New York City Aktiv 133 / 131 40% 5 05.11.2026 -
Justo Giani Umraniyespor Aktiv 126 / 129 40% 1 01.11.2026 -
Nicolò Cambiaghi Bologna Aktiv 133 / 136 40% 1 31.10.2026 -
Yousef Salech Cardiff City Aktiv 129 / 124 40% 3 27.10.2026 -
Iliman N'Diaye Everton Aktiv 153 / 162 40% 1 27.10.2026 -
Mohamed-Ali Cho Hull City Aktiv 134 / 142 40% 2 25.10.2026 -
Cody Gakpo Liverpool Aktiv 156 / 160 40% 4 22.10.2026 -
David Romero Parma Aktiv 131 / 126 40% 1 22.10.2026 -
Rodrigo Muniz Fulham Aktiv 137 / 137 40% 3 21.10.2026 -
Nicolò Tresoldi Club Brugge Aktiv 136 / 138 40% 3 19.10.2026 -
Assad Al Hamlawi Universitatea Craiova Aktiv 117 / 113 40% 2 16.10.2026 -
Jesus Ferreira Seattle Sounders Aktiv 128 / 130 40% 4 14.10.2026 -
Alexander Díaz Deportivo Riestra Aktiv 121 / 119 40% 1 09.10.2026 -
Alejandro Piedrahita Deportivo Pereira Aktiv 123 / 118 40% 2 04.10.2026 -
Wessam Abou Ali Columbus Crew Aktiv 124 / 126 40% 2 27.09.2026 -
Alexander Aravena Portland Timbers Aktiv 127 / 125 40% 1 25.09.2026 -
Josh Sargent Toronto FC Aktiv 126 / 128 40% 1 25.09.2026 -
Aune Heggebø West Bromwich Albion Aktiv 122 / 122 40% 2 23.09.2026 -
Patson Daka Leicester City Aktiv 129 / 119 40% 1 23.09.2026 -
Alexis Cuello San Lorenzo Aktiv 117 / 131 40% 1 23.09.2026 -
Germán Berterame Inter Miami CF Aktiv 131 / 131 40% 1 17.09.2026 -
Joshua Zirkzee Manchester United Aktiv 148 / 137 40% 1 17.09.2026 -
Bénie Traoré New York City Aktiv 121 / 121 40% 1 11.09.2026 -
Georginio Rutter Brighton Aktiv 148 / 140 40% 1 08.09.2026 -
Alejo Cruz Juventud Aktiv 117 / 113 40% 1 07.09.2026 -
Christian Pulisic AC Milan Aktiv 162 / 153 40% 2 05.09.2026 -
Kelvin Yeboah Minnesota United FC Aktiv 127 / 117 40% 1 19.08.2026 -
Nicolas Jackson Aston Villa Aktiv 143 / 142 40% 1 01.08.2026 -